createdAt,value
2022-12-24T00:00:17.317Z,100.00
2022-12-24T00:03:02.871Z,100.00
2022-12-24T00:05:48.425Z,100.00
2022-12-24T00:08:34.897Z,100.00
2022-12-24T00:11:20.837Z,100.00
2022-12-24T00:14:06.454Z,100.00
2022-12-24T00:16:51.818Z,100.00
2022-12-24T00:19:37.228Z,100.00
2022-12-24T00:22:22.702Z,100.00
2022-12-24T00:25:08.817Z,100.00
2022-12-24T00:27:54.415Z,100.00
2022-12-24T00:30:40.970Z,100.00
2022-12-24T00:33:26.566Z,100.00
2022-12-24T00:36:12.131Z,100.00
2022-12-24T00:38:57.323Z,100.00
2022-12-24T00:41:42.769Z,100.00
2022-12-24T00:44:28.382Z,100.00
2022-12-24T00:47:13.999Z,100.00
2022-12-24T00:49:59.453Z,100.00
2022-12-24T00:52:44.912Z,100.00
2022-12-24T00:55:30.480Z,100.00
2022-12-24T00:58:15.859Z,100.00
2022-12-24T01:01:01.226Z,100.00
2022-12-24T01:03:47.154Z,100.00
2022-12-24T01:06:32.854Z,100.00
2022-12-24T01:09:18.292Z,100.00
2022-12-24T01:12:04.072Z,100.00
2022-12-24T01:14:49.408Z,100.00
2022-12-24T01:17:35.097Z,100.00
2022-12-24T01:20:20.977Z,100.00
2022-12-24T01:23:06.256Z,100.00
2022-12-24T01:25:52.009Z,100.00
2022-12-24T01:28:37.436Z,100.00
2022-12-24T01:31:23.187Z,100.00
2022-12-24T01:34:08.758Z,100.00
2022-12-24T01:36:54.365Z,100.00
2022-12-24T01:39:39.835Z,100.00
2022-12-24T01:42:43.400Z,100.00
2022-12-24T01:45:47.331Z,100.00
2022-12-24T01:48:38.927Z,100.00
2022-12-24T01:51:29.016Z,100.00
2022-12-24T01:54:17.129Z,100.00
2022-12-24T01:57:07.694Z,100.00
2022-12-24T01:59:57.799Z,100.00
2022-12-24T02:02:50.524Z,100.00
2022-12-24T02:05:47.656Z,100.00
2022-12-24T02:08:42.874Z,100.00
2022-12-24T02:11:28.096Z,100.00
2022-12-24T02:14:14.416Z,100.00
2022-12-24T02:17:37.980Z,100.00
2022-12-24T02:21:00.983Z,100.00
2022-12-24T02:24:09.156Z,100.00
2022-12-24T02:27:17.743Z,100.00
2022-12-24T02:30:09.370Z,100.00
2022-12-24T02:32:58.172Z,100.00
2022-12-24T02:35:49.242Z,100.00
2022-12-24T02:38:39.911Z,100.00
2022-12-24T02:41:50.347Z,100.00
2022-12-24T02:44:47.454Z,100.00
2022-12-24T02:47:34.137Z,100.00
2022-12-24T02:50:19.641Z,100.00
2022-12-24T02:53:06.032Z,100.00
2022-12-24T02:56:34.258Z,100.00
2022-12-24T02:59:37.733Z,100.00
2022-12-24T03:02:44.536Z,100.00
2022-12-24T03:05:42.409Z,100.00
2022-12-24T03:08:42.416Z,100.00
2022-12-24T03:11:27.912Z,100.00
2022-12-24T03:14:15.546Z,100.00
2022-12-24T03:17:03.646Z,100.00
2022-12-24T03:19:49.996Z,100.00
2022-12-24T03:22:35.935Z,100.00
2022-12-24T03:25:25.508Z,100.00
2022-12-24T03:28:15.429Z,100.00
2022-12-24T03:31:03.934Z,100.00
2022-12-24T03:33:49.549Z,100.00
2022-12-24T03:36:34.924Z,100.00
2022-12-24T03:39:20.739Z,100.00
2022-12-24T03:42:06.137Z,100.00
2022-12-24T03:44:51.573Z,100.00
2022-12-24T03:47:37.131Z,100.00
2022-12-24T03:50:23.129Z,100.00
2022-12-24T03:53:08.796Z,100.00
2022-12-24T03:55:54.424Z,100.00
2022-12-24T03:58:39.798Z,100.00
2022-12-24T04:01:25.265Z,100.00
2022-12-24T04:04:11.116Z,100.00
2022-12-24T04:06:56.553Z,100.00
2022-12-24T04:09:41.934Z,100.00
2022-12-24T04:12:27.316Z,100.00
2022-12-24T04:15:12.785Z,100.00
2022-12-24T04:17:58.578Z,100.00
2022-12-24T04:20:44.024Z,100.00
2022-12-24T04:23:34.534Z,100.00
2022-12-24T04:26:19.850Z,100.00
2022-12-24T04:29:05.499Z,100.00
2022-12-24T04:31:51.173Z,100.00
2022-12-24T04:34:37.526Z,100.00
2022-12-24T04:37:22.904Z,100.00
2022-12-24T04:40:09.138Z,100.00
2022-12-24T04:42:54.693Z,100.00
2022-12-24T04:45:40.244Z,100.00
2022-12-24T04:48:25.711Z,100.00
2022-12-24T04:51:12.013Z,100.00
2022-12-24T04:53:57.339Z,100.00
2022-12-24T04:56:42.717Z,100.00
2022-12-24T04:59:28.292Z,100.00
2022-12-24T05:02:13.909Z,100.00
2022-12-24T05:04:59.689Z,100.00
2022-12-24T05:07:44.969Z,100.00
2022-12-24T05:10:30.617Z,100.00
2022-12-24T05:13:15.851Z,100.00
2022-12-24T05:16:01.392Z,100.00
2022-12-24T05:18:47.065Z,100.00
2022-12-24T05:21:32.529Z,100.00
2022-12-24T05:24:36.607Z,100.00
2022-12-24T05:27:22.319Z,100.00
2022-12-24T05:30:08.335Z,100.00
2022-12-24T05:32:53.696Z,100.00
2022-12-24T05:35:38.999Z,100.00
2022-12-24T05:38:24.325Z,100.00
2022-12-24T05:41:10.065Z,100.00
2022-12-24T05:43:55.424Z,100.00
2022-12-24T05:46:41.065Z,100.00
2022-12-24T05:49:26.520Z,100.00
2022-12-24T05:52:12.208Z,100.00
2022-12-24T05:54:57.866Z,100.00
2022-12-24T05:57:43.088Z,100.00
2022-12-24T06:00:28.863Z,100.00
2022-12-24T06:03:14.185Z,100.00
2022-12-24T06:06:09.558Z,100.00
2022-12-24T06:08:55.847Z,100.00
2022-12-24T06:11:41.146Z,100.00
2022-12-24T06:14:26.662Z,100.00
2022-12-24T06:17:12.285Z,100.00
2022-12-24T06:19:57.874Z,100.00
2022-12-24T06:22:43.204Z,100.00
2022-12-24T06:25:28.870Z,100.00
2022-12-24T06:28:14.578Z,100.00
2022-12-24T06:31:03.161Z,100.00
2022-12-24T06:33:49.783Z,100.00
2022-12-24T06:36:35.468Z,100.00
2022-12-24T06:39:20.704Z,100.00
2022-12-24T06:42:06.335Z,100.00
2022-12-24T06:44:51.645Z,100.00
2022-12-24T06:47:37.170Z,100.00
2022-12-24T06:50:22.400Z,100.00
2022-12-24T06:53:08.933Z,100.00
2022-12-24T06:56:01.694Z,100.00
2022-12-24T06:58:47.521Z,100.00
2022-12-24T07:01:32.984Z,100.00
2022-12-24T07:04:20.758Z,100.00
2022-12-24T07:07:06.252Z,100.00
2022-12-24T07:09:51.910Z,100.00
2022-12-24T07:12:37.310Z,100.00
2022-12-24T07:15:23.092Z,100.00
2022-12-24T07:18:08.388Z,100.00
2022-12-24T07:20:53.968Z,100.00
2022-12-24T07:23:39.702Z,100.00
2022-12-24T07:26:25.321Z,100.00
2022-12-24T07:29:10.764Z,100.00
2022-12-24T07:31:56.532Z,100.00
2022-12-24T07:34:42.422Z,100.00
2022-12-24T07:37:28.053Z,100.00
2022-12-24T07:40:13.714Z,100.00
2022-12-24T07:42:59.200Z,100.00
2022-12-24T07:45:44.649Z,100.00
2022-12-24T07:48:31.352Z,100.00
2022-12-24T07:51:16.782Z,100.00
2022-12-24T07:54:04.725Z,100.00
2022-12-24T07:56:49.938Z,100.00
2022-12-24T07:59:35.273Z,100.00
2022-12-24T08:02:21.032Z,100.00
2022-12-24T08:05:06.903Z,100.00
2022-12-24T08:07:52.615Z,100.00
2022-12-24T08:10:41.963Z,100.00
2022-12-24T08:13:27.593Z,100.00
2022-12-24T08:16:13.392Z,100.00
2022-12-24T08:18:58.974Z,100.00
2022-12-24T08:21:44.347Z,100.00
2022-12-24T08:24:29.939Z,100.00
2022-12-24T08:27:15.419Z,100.00
2022-12-24T08:30:01.087Z,100.00
2022-12-24T08:32:46.762Z,100.00
2022-12-24T08:35:32.229Z,100.00
2022-12-24T08:38:17.804Z,100.00
2022-12-24T08:41:02.921Z,100.00
2022-12-24T08:43:48.510Z,100.00
2022-12-24T08:46:33.923Z,100.00
2022-12-24T08:49:19.617Z,100.00
2022-12-24T08:52:05.890Z,100.00
2022-12-24T08:54:51.092Z,100.00
2022-12-24T08:57:37.308Z,100.00
2022-12-24T09:00:22.661Z,100.00
2022-12-24T09:03:13.014Z,100.00
2022-12-24T09:05:59.992Z,100.00
2022-12-24T09:08:45.342Z,100.00
2022-12-24T09:11:30.769Z,100.00
2022-12-24T09:14:16.070Z,100.00
2022-12-24T09:17:01.683Z,100.00
2022-12-24T09:19:47.156Z,100.00
2022-12-24T09:22:37.691Z,100.00
2022-12-24T09:25:23.098Z,100.00
2022-12-24T09:28:10.241Z,100.00
2022-12-24T09:31:01.082Z,100.00
2022-12-24T09:33:48.085Z,100.00
2022-12-24T09:36:34.323Z,100.00
2022-12-24T09:39:20.878Z,100.00
2022-12-24T09:42:39.611Z,100.00
2022-12-24T09:45:31.377Z,100.00
2022-12-24T09:48:21.484Z,100.00
2022-12-24T09:51:12.207Z,100.00
2022-12-24T09:54:04.145Z,100.00
2022-12-24T09:56:49.934Z,100.00
2022-12-24T09:59:43.771Z,100.00
2022-12-24T10:02:29.542Z,100.00
2022-12-24T10:05:15.826Z,100.00
2022-12-24T10:08:47.787Z,100.00
2022-12-24T10:11:47.282Z,100.00
2022-12-24T10:14:51.868Z,100.00
2022-12-24T10:18:02.541Z,100.00
2022-12-24T10:20:53.575Z,100.00
2022-12-24T10:23:55.179Z,100.00
2022-12-24T10:26:59.691Z,100.00
2022-12-24T10:29:54.179Z,100.00
2022-12-24T10:32:39.863Z,100.00
2022-12-24T10:35:34.684Z,100.00
2022-12-24T10:38:19.954Z,100.00
2022-12-24T10:41:08.165Z,100.00
2022-12-24T10:43:54.963Z,100.00
2022-12-24T10:46:40.600Z,100.00
2022-12-24T10:49:34.055Z,100.00
2022-12-24T10:52:22.788Z,100.00
2022-12-24T10:55:15.961Z,100.00
2022-12-24T10:58:04.472Z,100.00
2022-12-24T11:00:52.099Z,100.00
2022-12-24T11:03:38.237Z,100.00
2022-12-24T11:06:23.560Z,100.00
2022-12-24T11:09:33.333Z,100.00
2022-12-24T11:12:23.266Z,100.00
2022-12-24T11:15:26.117Z,100.00
2022-12-24T11:18:15.722Z,100.00
2022-12-24T11:21:01.619Z,100.00
2022-12-24T11:23:53.668Z,100.00
2022-12-24T11:26:43.176Z,100.00
2022-12-24T11:29:28.963Z,100.00
2022-12-24T11:32:20.488Z,100.00
2022-12-24T11:35:08.017Z,100.00
2022-12-24T11:38:02.371Z,100.00
2022-12-24T11:41:03.399Z,100.00
2022-12-24T11:43:50.973Z,100.00
2022-12-24T11:46:38.688Z,100.00
2022-12-24T11:49:26.880Z,100.00
2022-12-24T11:52:19.545Z,100.00
2022-12-24T11:55:41.460Z,100.00
2022-12-24T11:58:36.029Z,100.00
2022-12-24T12:01:29.752Z,100.00
2022-12-24T12:04:20.586Z,100.00
2022-12-24T12:07:15.179Z,100.00
2022-12-24T12:10:16.306Z,100.00
2022-12-24T12:13:15.264Z,100.00
2022-12-24T12:16:26.152Z,100.00
2022-12-24T12:19:15.309Z,100.00
2022-12-24T12:22:05.067Z,100.00
2022-12-24T12:24:55.814Z,100.00
2022-12-24T12:27:45.906Z,100.00
2022-12-24T12:30:33.108Z,100.00
2022-12-24T12:33:49.177Z,100.00
2022-12-24T12:36:46.437Z,100.00
2022-12-24T12:39:32.220Z,100.00
2022-12-24T12:42:31.127Z,100.00
2022-12-24T12:45:42.120Z,100.00
2022-12-24T12:48:43.340Z,100.00
2022-12-24T12:51:35.336Z,93.71
2022-12-24T12:54:47.421Z,77.46
2022-12-24T12:57:37.141Z,74.62
2022-12-24T13:00:23.585Z,71.52
2022-12-24T13:03:40.291Z,68.99
2022-12-24T13:06:46.342Z,68.23
2022-12-24T13:10:02.315Z,79.06
2022-12-24T13:12:56.782Z,89.26
2022-12-24T13:15:53.817Z,95.70
2022-12-24T13:19:19.903Z,96.75
2022-12-24T13:22:05.678Z,96.11
2022-12-24T13:24:53.796Z,98.98
2022-12-24T13:27:39.373Z,100.00
2022-12-24T13:30:40.005Z,100.00
2022-12-24T13:33:34.611Z,100.00
2022-12-24T13:36:20.955Z,100.00
2022-12-24T13:39:18.771Z,100.00
2022-12-24T13:42:04.479Z,100.00
2022-12-24T13:45:28.187Z,100.00
2022-12-24T13:48:33.107Z,100.00
2022-12-24T13:51:25.362Z,100.00
2022-12-24T13:54:13.773Z,100.00
2022-12-24T13:57:00.453Z,100.00
2022-12-24T13:59:46.830Z,100.00
2022-12-24T14:02:39.098Z,100.00
2022-12-24T14:05:32.162Z,100.00
2022-12-24T14:08:32.019Z,100.00
2022-12-24T14:11:23.827Z,100.00
2022-12-24T14:14:12.166Z,100.00
2022-12-24T14:17:03.687Z,100.00
2022-12-24T14:19:58.254Z,100.00
2022-12-24T14:22:46.909Z,100.00
2022-12-24T14:25:32.738Z,100.00
2022-12-24T14:28:24.212Z,100.00
2022-12-24T14:31:16.788Z,100.00
2022-12-24T14:34:07.952Z,100.00
2022-12-24T14:36:55.792Z,100.00
2022-12-24T14:39:48.273Z,100.00
2022-12-24T14:42:46.549Z,100.00
2022-12-24T14:45:46.734Z,100.00
2022-12-24T14:48:41.125Z,100.00
2022-12-24T14:51:53.557Z,100.00
2022-12-24T14:54:44.096Z,100.00
2022-12-24T14:57:29.536Z,100.00
2022-12-24T15:00:26.171Z,100.00
2022-12-24T15:03:19.776Z,100.00
2022-12-24T15:06:08.440Z,100.00
2022-12-24T15:08:54.864Z,100.00
2022-12-24T15:11:44.597Z,100.00
2022-12-24T15:14:31.814Z,100.00
2022-12-24T15:17:17.353Z,100.00
2022-12-24T15:20:04.043Z,100.00
2022-12-24T15:22:55.977Z,100.00
2022-12-24T15:25:41.121Z,100.00
2022-12-24T15:28:26.758Z,100.00
2022-12-24T15:31:15.808Z,100.00
2022-12-24T15:34:01.781Z,100.00
2022-12-24T15:36:47.894Z,100.00
2022-12-24T15:39:34.008Z,100.00
2022-12-24T15:42:22.467Z,100.00
2022-12-24T15:45:20.255Z,100.00
2022-12-24T15:48:10.843Z,100.00
2022-12-24T15:51:00.430Z,100.00
2022-12-24T15:53:46.160Z,100.00
2022-12-24T15:56:37.805Z,100.00
2022-12-24T15:59:31.258Z,100.00
2022-12-24T16:02:34.483Z,100.00
2022-12-24T16:05:29.482Z,100.00
2022-12-24T16:08:15.102Z,100.00
2022-12-24T16:11:11.600Z,100.00
2022-12-24T16:14:09.154Z,100.00
2022-12-24T16:16:54.614Z,100.00
2022-12-24T16:19:40.833Z,100.00
2022-12-24T16:22:32.521Z,100.00
2022-12-24T16:25:22.733Z,100.00
2022-12-24T16:28:16.154Z,100.00
2022-12-24T16:31:06.132Z,100.00
2022-12-24T16:33:52.987Z,100.00
2022-12-24T16:36:38.495Z,100.00
2022-12-24T16:39:30.398Z,100.00
2022-12-24T16:42:34.969Z,100.00
2022-12-24T16:45:20.506Z,100.00
2022-12-24T16:48:07.671Z,100.00
2022-12-24T16:50:53.519Z,100.00
2022-12-24T16:53:40.106Z,100.00
2022-12-24T16:56:25.562Z,100.00
2022-12-24T16:59:19.280Z,100.00
2022-12-24T17:02:10.770Z,100.00
2022-12-24T17:04:59.519Z,100.00
2022-12-24T17:07:45.394Z,100.00
2022-12-24T17:10:30.880Z,100.00
2022-12-24T17:13:16.227Z,100.00
2022-12-24T17:16:03.031Z,100.00
2022-12-24T17:18:49.027Z,100.00
2022-12-24T17:21:34.465Z,100.00
2022-12-24T17:24:19.832Z,100.00
2022-12-24T17:27:05.298Z,100.00
2022-12-24T17:29:51.041Z,100.00
2022-12-24T17:32:37.370Z,100.00
2022-12-24T17:35:22.780Z,100.00
2022-12-24T17:38:08.604Z,100.00
2022-12-24T17:41:01.008Z,100.00
2022-12-24T17:43:47.483Z,100.00
2022-12-24T17:46:32.848Z,100.00
2022-12-24T17:49:18.478Z,100.00
2022-12-24T17:52:04.719Z,100.00
2022-12-24T17:54:50.411Z,100.00
2022-12-24T17:57:36.004Z,100.00
2022-12-24T18:00:21.615Z,100.00
2022-12-24T18:03:10.888Z,100.00
2022-12-24T18:06:08.776Z,100.00
2022-12-24T18:08:54.465Z,100.00
2022-12-24T18:11:39.985Z,100.00
2022-12-24T18:14:25.438Z,100.00
2022-12-24T18:17:12.160Z,100.00
2022-12-24T18:19:57.731Z,100.00
2022-12-24T18:22:43.515Z,100.00
2022-12-24T18:25:28.828Z,100.00
2022-12-24T18:28:14.310Z,100.00
2022-12-24T18:31:02.112Z,100.00
2022-12-24T18:33:48.977Z,100.00
2022-12-24T18:36:35.007Z,100.00
2022-12-24T18:39:20.629Z,100.00
2022-12-24T18:42:06.213Z,100.00
2022-12-24T18:44:51.819Z,100.00
2022-12-24T18:47:37.507Z,100.00
2022-12-24T18:50:22.653Z,100.00
2022-12-24T18:53:08.382Z,100.00
2022-12-24T18:55:53.987Z,100.00
2022-12-24T18:58:40.976Z,100.00
2022-12-24T19:01:29.362Z,100.00
2022-12-24T19:04:15.039Z,100.00
2022-12-24T19:07:00.454Z,100.00
2022-12-24T19:09:48.266Z,100.00
2022-12-24T19:12:33.744Z,100.00
2022-12-24T19:15:19.098Z,100.00
2022-12-24T19:18:04.640Z,100.00
2022-12-24T19:20:50.132Z,100.00
2022-12-24T19:23:35.636Z,100.00
2022-12-24T19:26:21.665Z,100.00
2022-12-24T19:29:07.303Z,100.00
2022-12-24T19:31:53.067Z,100.00
2022-12-24T19:34:38.636Z,100.00
2022-12-24T19:37:23.975Z,100.00
2022-12-24T19:40:09.966Z,100.00
2022-12-24T19:42:55.637Z,100.00
2022-12-24T19:45:41.290Z,100.00
2022-12-24T19:48:26.900Z,100.00
2022-12-24T19:51:12.556Z,100.00
2022-12-24T19:53:59.477Z,100.00
2022-12-24T19:56:45.070Z,100.00
2022-12-24T19:59:30.785Z,100.00
2022-12-24T20:02:16.792Z,100.00
2022-12-24T20:05:02.873Z,100.00
2022-12-24T20:07:48.356Z,100.00
2022-12-24T20:10:41.595Z,100.00
2022-12-24T20:13:27.024Z,100.00
2022-12-24T20:16:20.363Z,100.00
2022-12-24T20:19:06.919Z,100.00
2022-12-24T20:21:52.249Z,100.00
2022-12-24T20:24:37.692Z,100.00
2022-12-24T20:27:25.533Z,100.00
2022-12-24T20:30:10.947Z,100.00
2022-12-24T20:32:57.336Z,100.00
2022-12-24T20:35:42.911Z,100.00
2022-12-24T20:38:28.538Z,100.00
2022-12-24T20:41:16.037Z,100.00
2022-12-24T20:44:02.166Z,100.00
2022-12-24T20:46:47.742Z,100.00
2022-12-24T20:49:33.229Z,100.00
2022-12-24T20:52:18.599Z,100.00
2022-12-24T20:55:04.580Z,100.00
2022-12-24T20:57:52.151Z,100.00
2022-12-24T21:00:37.837Z,100.00
2022-12-24T21:03:23.220Z,100.00
2022-12-24T21:06:08.850Z,100.00
2022-12-24T21:08:54.755Z,100.00
2022-12-24T21:11:49.281Z,100.00
2022-12-24T21:14:34.723Z,100.00
2022-12-24T21:17:20.576Z,100.00
2022-12-24T21:20:06.700Z,100.00
2022-12-24T21:22:55.968Z,100.00
2022-12-24T21:25:45.884Z,100.00
2022-12-24T21:28:32.006Z,100.00
2022-12-24T21:31:18.007Z,100.00
2022-12-24T21:34:03.989Z,100.00
2022-12-24T21:36:49.724Z,100.00
2022-12-24T21:39:35.203Z,100.00
2022-12-24T21:42:20.871Z,100.00
2022-12-24T21:45:06.816Z,100.00
2022-12-24T21:47:52.297Z,100.00
2022-12-24T21:50:55.950Z,100.00
2022-12-24T21:53:59.762Z,100.00
2022-12-24T21:57:04.377Z,100.00
2022-12-24T21:59:51.624Z,100.00
2022-12-24T22:02:37.715Z,100.00
2022-12-24T22:05:24.865Z,100.00
2022-12-24T22:08:28.515Z,100.00
2022-12-24T22:11:33.425Z,100.00
2022-12-24T22:14:18.998Z,100.00
2022-12-24T22:17:04.770Z,100.00
2022-12-24T22:19:50.111Z,100.00
2022-12-24T22:22:35.482Z,100.00
2022-12-24T22:25:20.944Z,100.00
2022-12-24T22:28:07.336Z,100.00
2022-12-24T22:30:52.781Z,100.00
2022-12-24T22:33:38.265Z,100.00
2022-12-24T22:36:23.607Z,100.00
2022-12-24T22:39:08.958Z,100.00
2022-12-24T22:41:54.472Z,100.00
2022-12-24T22:44:40.175Z,100.00
2022-12-24T22:47:25.677Z,100.00
2022-12-24T22:50:12.440Z,100.00
2022-12-24T22:52:57.691Z,100.00
2022-12-24T22:55:43.360Z,100.00
2022-12-24T22:58:29.175Z,100.00
2022-12-24T23:01:14.833Z,100.00
2022-12-24T23:04:00.215Z,100.00
2022-12-24T23:06:45.665Z,100.00
2022-12-24T23:09:30.946Z,100.00
2022-12-24T23:12:36.530Z,100.00
2022-12-24T23:15:22.308Z,100.00
2022-12-24T23:18:08.059Z,100.00
2022-12-24T23:20:53.457Z,100.00
2022-12-24T23:23:38.815Z,100.00
2022-12-24T23:26:24.806Z,100.00
2022-12-24T23:29:10.393Z,100.00
2022-12-24T23:31:55.968Z,100.00
2022-12-24T23:34:41.660Z,100.00
2022-12-24T23:37:32.987Z,100.00
2022-12-24T23:40:20.835Z,100.00
2022-12-24T23:43:06.130Z,100.00
2022-12-24T23:45:52.644Z,100.00
2022-12-24T23:48:37.817Z,100.00
2022-12-24T23:51:26.617Z,100.00
2022-12-24T23:54:11.833Z,100.00
2022-12-24T23:56:57.467Z,100.00
2022-12-24T23:59:42.908Z,100.00
